Armourdale, North Dakota
Current Conditions -  °F | °C
As of 6:55 AM on Thursday 30 Oct 2014 (Local Time) from K06D Reporting Station
Overcast Overcast  
Wind Chill: 18°   Ceiling: 900
Heat Index: 30°   Visibility: 10mi
Dew Point: 30°   Wind: 20mph
Humidity: 100%   Direction: 20°NNE
Pressure: 30.2"   Gusts: 26mph
Location:  48.8584°N, 99.1311°W
Report Text: K06D 301155Z AUTO 02017G23KT 10SM FEW005 OVC009 M01/M01 A3020 RMK AO2
Loading
Personal Weather Stations






























Interactive Weather Map
Tropical Storm Tracking
New forecast layout! Learn more

10-Day Weather Forecast

Advertisements
Track Severe Weather on mobile